createdAt,value
2019-01-04T00:00:19.899Z,-1.80
2019-01-04T00:02:51.007Z,-1.80
2019-01-04T00:05:20.411Z,-1.80
2019-01-04T00:07:49.746Z,-1.70
2019-01-04T00:10:19.318Z,-1.70
2019-01-04T00:12:48.991Z,-1.70
2019-01-04T00:15:18.654Z,-1.70
2019-01-04T00:17:48.171Z,-1.70
2019-01-04T00:20:17.839Z,-1.80
2019-01-04T00:22:47.284Z,-1.80
2019-01-04T00:25:16.735Z,-1.80
2019-01-04T00:27:46.615Z,-1.80
2019-01-04T00:30:15.975Z,-1.80
2019-01-04T00:32:45.727Z,-1.70
2019-01-04T00:35:15.263Z,-1.80
2019-01-04T00:37:44.574Z,-1.80
2019-01-04T00:40:13.920Z,-1.70
2019-01-04T00:42:43.504Z,-1.70
2019-01-04T00:45:12.914Z,-1.70
2019-01-04T00:47:42.554Z,-1.70
2019-01-04T00:50:12.174Z,-1.70
2019-01-04T00:52:41.755Z,-1.70
2019-01-04T00:55:14.534Z,-1.60
2019-01-04T00:58:15.942Z,-1.50
2019-01-04T01:01:06.462Z,-1.60
2019-01-04T01:03:47.984Z,-1.70
2019-01-04T01:06:43.744Z,-1.70
2019-01-04T01:09:31.251Z,-1.70
2019-01-04T01:12:29.906Z,-1.70
2019-01-04T01:15:28.469Z,-1.60
2019-01-04T01:18:34.434Z,-1.50
2019-01-04T01:21:34.296Z,-1.50
2019-01-04T01:24:29.497Z,-1.50
2019-01-04T01:27:33.574Z,-1.50
2019-01-04T01:30:17.718Z,-1.50
2019-01-04T01:32:59.079Z,-1.50
2019-01-04T01:35:37.318Z,-1.50
2019-01-04T01:38:25.241Z,-1.50
2019-01-04T01:41:10.120Z,-1.50
2019-01-04T01:44:01.979Z,-1.50
2019-01-04T01:46:47.485Z,-1.60
2019-01-04T01:49:40.844Z,-1.60
2019-01-04T01:52:22.803Z,-1.60
2019-01-04T01:54:52.198Z,-1.50
2019-01-04T01:57:21.503Z,-1.60
2019-01-04T01:59:51.008Z,-1.70
2019-01-04T02:02:20.305Z,-1.70
2019-01-04T02:04:49.607Z,-1.60
2019-01-04T02:07:19.165Z,-1.60
2019-01-04T02:09:48.639Z,-1.50
2019-01-04T02:12:18.003Z,-1.50
2019-01-04T02:14:47.721Z,-1.60
2019-01-04T02:17:17.147Z,-1.60
2019-01-04T02:19:46.581Z,-1.50
2019-01-04T02:22:16.010Z,-1.70
2019-01-04T02:24:45.418Z,-1.70
2019-01-04T02:27:14.961Z,-1.70
2019-01-04T02:29:44.535Z,-1.70
2019-01-04T02:32:13.935Z,-1.70
2019-01-04T02:34:43.300Z,-1.80
2019-01-04T02:37:12.804Z,-1.70
2019-01-04T02:39:42.208Z,-1.80
2019-01-04T02:42:11.960Z,-1.80
2019-01-04T02:44:41.682Z,-1.80
2019-01-04T02:47:11.116Z,-1.80
2019-01-04T02:49:40.731Z,-1.80
2019-01-04T02:52:10.175Z,-1.80
2019-01-04T02:54:39.591Z,-1.80
2019-01-04T02:57:09.008Z,-1.70
2019-01-04T02:59:38.890Z,-1.80
2019-01-04T03:02:11.828Z,-1.80
2019-01-04T03:04:41.523Z,-1.80
2019-01-04T03:07:11.014Z,-1.80
2019-01-04T03:09:40.508Z,-1.80
2019-01-04T03:12:10.308Z,-1.70
2019-01-04T03:14:39.975Z,-1.70
2019-01-04T03:17:09.623Z,-1.80
2019-01-04T03:19:39.034Z,-1.70
2019-01-04T03:22:08.648Z,-1.80
2019-01-04T03:24:38.169Z,-1.80
2019-01-04T03:27:08.193Z,-1.90
2019-01-04T03:29:37.715Z,-1.80
2019-01-04T03:32:09.469Z,-1.80
2019-01-04T03:34:39.160Z,-1.90
2019-01-04T03:37:08.479Z,-1.80
2019-01-04T03:39:37.822Z,-1.90
2019-01-04T03:42:07.438Z,-1.90
2019-01-04T03:44:36.927Z,-1.90
2019-01-04T03:47:06.536Z,-1.80
2019-01-04T03:49:36.001Z,-1.80
2019-01-04T03:52:05.577Z,-1.70
2019-01-04T03:54:35.486Z,-1.80
2019-01-04T03:57:05.104Z,-1.90
2019-01-04T03:59:34.557Z,-2.00
2019-01-04T04:02:05.615Z,-2.00
2019-01-04T04:04:35.226Z,-2.00
2019-01-04T04:07:05.992Z,-2.00
2019-01-04T04:09:35.486Z,-1.90
2019-01-04T04:12:04.942Z,-1.80
2019-01-04T04:14:34.372Z,-1.80
2019-01-04T04:17:03.700Z,-1.90
2019-01-04T04:19:33.125Z,-1.80
2019-01-04T04:22:02.809Z,-1.70
2019-01-04T04:24:32.330Z,-1.70
2019-01-04T04:27:01.927Z,-1.70
2019-01-04T04:29:31.341Z,-1.80
2019-01-04T04:32:00.824Z,-1.80
2019-01-04T04:34:30.318Z,-1.90
2019-01-04T04:36:59.718Z,-1.90
2019-01-04T04:39:29.367Z,-1.80
2019-01-04T04:41:58.875Z,-1.80
2019-01-04T04:44:28.444Z,-1.70
2019-01-04T04:46:57.906Z,-1.80
2019-01-04T04:49:27.258Z,-1.90
2019-01-04T04:51:56.676Z,-1.90
2019-01-04T04:54:26.085Z,-1.90
2019-01-04T04:56:55.849Z,-1.90
2019-01-04T04:59:25.140Z,-1.90
2019-01-04T05:01:54.755Z,-1.90
2019-01-04T05:04:32.889Z,-1.90
2019-01-04T05:06:58.719Z,-1.80
2019-01-04T05:09:31.216Z,-1.70
2019-01-04T05:12:00.686Z,-1.80
2019-01-04T05:14:30.112Z,-1.90
2019-01-04T05:16:59.511Z,-1.90
2019-01-04T05:19:32.951Z,-1.90
2019-01-04T05:22:02.524Z,-1.90
2019-01-04T05:24:31.979Z,-1.90
2019-01-04T05:27:01.719Z,-1.90
2019-01-04T05:29:31.207Z,-2.00
2019-01-04T05:32:00.524Z,-2.10
2019-01-04T05:34:30.198Z,-2.20
2019-01-04T05:36:59.694Z,-2.20
2019-01-04T05:39:29.207Z,-2.10
2019-01-04T05:41:59.160Z,-2.10
2019-01-04T05:44:28.686Z,-2.20
2019-01-04T05:46:58.214Z,-2.20
2019-01-04T05:49:27.981Z,-2.10
2019-01-04T05:51:58.396Z,-2.00
2019-01-04T05:54:27.992Z,-2.10
2019-01-04T05:56:57.534Z,-2.10
2019-01-04T05:59:26.915Z,-2.00
2019-01-04T06:01:56.723Z,-1.90
2019-01-04T06:04:26.233Z,-2.00
2019-01-04T06:06:55.863Z,-1.90
2019-01-04T06:09:25.695Z,-2.00
2019-01-04T06:11:55.075Z,-2.00
2019-01-04T06:14:24.684Z,-1.90
2019-01-04T06:16:54.337Z,-2.00
2019-01-04T06:19:24.416Z,-2.10
2019-01-04T06:21:53.915Z,-2.10
2019-01-04T06:24:23.467Z,-2.00
2019-01-04T06:26:52.742Z,-2.00
2019-01-04T06:29:22.371Z,-2.00
2019-01-04T06:31:51.668Z,-2.00
2019-01-04T06:34:21.269Z,-2.00
2019-01-04T06:36:50.647Z,-2.00
2019-01-04T06:39:20.073Z,-2.10
2019-01-04T06:41:49.510Z,-2.20
2019-01-04T06:44:19.163Z,-2.20
2019-01-04T06:47:08.662Z,-2.20
2019-01-04T06:49:38.256Z,-2.20
2019-01-04T06:52:07.940Z,-2.20
2019-01-04T06:55:13.582Z,-2.20
2019-01-04T06:57:43.063Z,-2.20
2019-01-04T07:00:12.591Z,-2.20
2019-01-04T07:02:42.721Z,-1.90
2019-01-04T07:05:12.374Z,-1.80
2019-01-04T07:07:41.981Z,-1.90
2019-01-04T07:10:11.559Z,-1.90
2019-01-04T07:12:40.944Z,-2.10
2019-01-04T07:15:10.356Z,-2.00
2019-01-04T07:17:39.712Z,-2.20
2019-01-04T07:20:09.237Z,-2.00
2019-01-04T07:22:38.603Z,-2.00
2019-01-04T07:25:08.148Z,-1.90
2019-01-04T07:27:38.022Z,-1.80
2019-01-04T07:30:08.599Z,-1.80
2019-01-04T07:32:37.987Z,-1.50
2019-01-04T07:35:07.849Z,-1.60
2019-01-04T07:37:37.383Z,-1.50
2019-01-04T07:40:09.017Z,-1.30
2019-01-04T07:42:38.909Z,-1.40
2019-01-04T07:45:09.546Z,-1.50
2019-01-04T07:47:39.247Z,-1.40
2019-01-04T07:50:08.649Z,-1.40
2019-01-04T07:52:38.184Z,-1.30
2019-01-04T07:55:10.539Z,-1.20
2019-01-04T07:57:40.113Z,-1.00
2019-01-04T08:00:12.823Z,-1.10
2019-01-04T08:02:43.218Z,-0.90
2019-01-04T08:05:14.992Z,-1.10
2019-01-04T08:07:44.511Z,-0.90
2019-01-04T08:10:15.022Z,-1.00
2019-01-04T08:12:44.627Z,-1.00
2019-01-04T08:15:14.151Z,-0.70
2019-01-04T08:17:44.788Z,-0.70
2019-01-04T08:20:14.217Z,-0.60
2019-01-04T08:22:43.575Z,-0.70
2019-01-04T08:25:13.390Z,-0.90
2019-01-04T08:27:42.911Z,-0.80
2019-01-04T08:30:12.575Z,-0.90
2019-01-04T08:32:42.042Z,-1.00
2019-01-04T08:35:11.650Z,-1.10
2019-01-04T08:37:41.092Z,-1.00
2019-01-04T08:40:10.803Z,-0.70
2019-01-04T08:42:40.312Z,-1.00
2019-01-04T08:45:10.160Z,-0.90
2019-01-04T08:47:39.511Z,-1.10
2019-01-04T08:50:09.196Z,-1.20
2019-01-04T08:52:38.889Z,-1.30
2019-01-04T08:55:09.651Z,-1.40
2019-01-04T08:57:39.240Z,-1.40
2019-01-04T09:00:12.046Z,-1.30
2019-01-04T09:02:41.544Z,-1.30
2019-01-04T09:05:11.075Z,-1.30
2019-01-04T09:07:40.553Z,-1.60
2019-01-04T09:10:10.232Z,-1.50
2019-01-04T09:12:39.634Z,-1.60
2019-01-04T09:15:09.250Z,-1.50
2019-01-04T09:17:38.655Z,-1.10
2019-01-04T09:20:09.147Z,-1.20
2019-01-04T09:22:38.745Z,-1.00
2019-01-04T09:25:08.902Z,-0.80
2019-01-04T09:27:38.960Z,-0.90
2019-01-04T09:30:11.062Z,-0.90
2019-01-04T09:32:41.521Z,-0.50
2019-01-04T09:35:10.991Z,0.00
2019-01-04T09:37:40.352Z,-0.10
2019-01-04T09:40:09.887Z,-0.60
2019-01-04T09:42:39.366Z,-0.70
2019-01-04T09:45:09.405Z,-0.30
2019-01-04T09:47:39.162Z,-0.20
2019-01-04T09:50:09.071Z,0.00
2019-01-04T09:52:38.631Z,-0.40
2019-01-04T09:55:08.943Z,-0.60
2019-01-04T09:57:38.651Z,-0.50
2019-01-04T10:00:09.858Z,-0.50
2019-01-04T10:02:39.197Z,-0.30
2019-01-04T10:05:09.148Z,-0.40
2019-01-04T10:07:41.659Z,-0.50
2019-01-04T10:10:11.189Z,-0.50
2019-01-04T10:12:40.870Z,-0.30
2019-01-04T10:15:14.907Z,-0.10
2019-01-04T10:17:44.285Z,-0.10
2019-01-04T10:20:13.679Z,-0.10
2019-01-04T10:22:43.125Z,0.30
2019-01-04T10:25:13.617Z,0.50
2019-01-04T10:27:43.093Z,0.70
2019-01-04T10:30:18.358Z,0.70
2019-01-04T10:32:47.799Z,0.80
2019-01-04T10:35:17.302Z,1.00
2019-01-04T10:37:46.611Z,0.80
2019-01-04T10:40:16.027Z,1.20
2019-01-04T10:42:45.478Z,1.00
2019-01-04T10:45:14.783Z,1.30
2019-01-04T10:47:45.223Z,1.00
2019-01-04T10:50:14.658Z,0.90
2019-01-04T10:52:44.062Z,0.90
2019-01-04T10:55:13.379Z,0.50
2019-01-04T10:57:42.834Z,0.20
2019-01-04T11:00:12.746Z,0.30
2019-01-04T11:02:42.210Z,-0.20
2019-01-04T11:05:11.664Z,0.00
2019-01-04T11:07:41.519Z,0.20
2019-01-04T11:10:14.172Z,0.60
2019-01-04T11:12:44.856Z,0.60
2019-01-04T11:15:14.231Z,0.40
2019-01-04T11:17:43.615Z,0.60
2019-01-04T11:20:41.429Z,0.40
2019-01-04T11:23:43.100Z,0.30
2019-01-04T11:26:24.778Z,0.30
2019-01-04T11:29:03.267Z,0.30
2019-01-04T11:31:53.962Z,0.50
2019-01-04T11:34:32.207Z,0.60
2019-01-04T11:37:19.957Z,0.80
2019-01-04T11:40:12.131Z,0.30
2019-01-04T11:43:11.250Z,0.50
2019-01-04T11:45:46.973Z,0.30
2019-01-04T11:48:31.834Z,0.10
2019-01-04T11:51:13.370Z,0.10
2019-01-04T11:53:42.827Z,-0.10
2019-01-04T11:56:12.200Z,-0.30
2019-01-04T11:58:41.631Z,-0.20
2019-01-04T12:01:11.149Z,-0.10
2019-01-04T12:03:40.879Z,0.20
2019-01-04T12:06:10.317Z,0.20
2019-01-04T12:08:39.786Z,0.00
2019-01-04T12:11:09.402Z,-0.10
2019-01-04T12:13:38.998Z,0.10
2019-01-04T12:16:08.404Z,0.20
2019-01-04T12:18:37.735Z,0.50
2019-01-04T12:21:07.128Z,0.60
2019-01-04T12:23:36.451Z,0.50
2019-01-04T12:26:05.854Z,-0.30
2019-01-04T12:28:35.285Z,-0.20
2019-01-04T12:31:04.690Z,-0.30
2019-01-04T12:33:34.168Z,-0.10
2019-01-04T12:36:05.334Z,-0.30
2019-01-04T12:38:34.945Z,-0.60
2019-01-04T12:41:04.332Z,-0.40
2019-01-04T12:43:33.756Z,-0.40
2019-01-04T12:46:03.204Z,-0.40
2019-01-04T12:48:32.618Z,-0.30
2019-01-04T12:51:02.118Z,-0.20
2019-01-04T12:53:31.626Z,-0.20
2019-01-04T12:56:01.057Z,-0.30
2019-01-04T12:58:30.639Z,-0.40
2019-01-04T13:00:59.963Z,-0.20
2019-01-04T13:03:29.384Z,0.30
2019-01-04T13:05:58.807Z,0.20
2019-01-04T13:08:28.147Z,0.20
2019-01-04T13:10:57.934Z,0.00
2019-01-04T13:13:27.451Z,-0.10
2019-01-04T13:15:56.819Z,-0.40
2019-01-04T13:18:26.191Z,-0.60
2019-01-04T13:20:55.748Z,-0.60
2019-01-04T13:23:25.055Z,-0.50
2019-01-04T13:25:54.567Z,-0.40
2019-01-04T13:28:23.954Z,-0.50
2019-01-04T13:30:53.338Z,-0.20
2019-01-04T13:33:22.911Z,-0.40
2019-01-04T13:35:52.386Z,-0.50
2019-01-04T13:38:21.788Z,-0.60
2019-01-04T13:40:51.219Z,-0.60
2019-01-04T13:43:20.532Z,-0.90
2019-01-04T13:45:50.021Z,-1.00
2019-01-04T13:48:19.721Z,-1.30
2019-01-04T13:50:50.239Z,-1.40
2019-01-04T13:53:19.720Z,-1.40
2019-01-04T13:55:49.339Z,-1.50
2019-01-04T13:58:18.774Z,-1.60
2019-01-04T14:00:48.236Z,-1.60
2019-01-04T14:03:17.918Z,-1.50
2019-01-04T14:05:47.845Z,-1.60
2019-01-04T14:08:17.835Z,-1.70
2019-01-04T14:10:47.289Z,-1.70
2019-01-04T14:13:16.856Z,-1.70
2019-01-04T14:15:46.370Z,-1.70
2019-01-04T14:18:15.807Z,-1.60
2019-01-04T14:20:45.487Z,-1.60
2019-01-04T14:23:14.937Z,-1.50
2019-01-04T14:25:44.238Z,-1.40
2019-01-04T14:28:13.596Z,-1.60
2019-01-04T14:30:43.048Z,-1.50
2019-01-04T14:33:12.554Z,-1.60
2019-01-04T14:35:41.986Z,-1.60
2019-01-04T14:38:11.749Z,-1.60
2019-01-04T14:40:41.145Z,-1.50
2019-01-04T14:43:10.695Z,-1.40
2019-01-04T14:45:40.107Z,-1.60
2019-01-04T14:48:09.644Z,-1.70
2019-01-04T14:50:39.081Z,-1.80
2019-01-04T14:53:08.496Z,-1.80
2019-01-04T14:55:38.152Z,-1.90
2019-01-04T14:58:07.679Z,-1.90
2019-01-04T15:00:37.119Z,-1.80
2019-01-04T15:03:06.511Z,-1.70
2019-01-04T15:05:36.148Z,-1.80
2019-01-04T15:08:05.533Z,-1.80
2019-01-04T15:10:36.331Z,-1.70
2019-01-04T15:13:05.704Z,-1.80
2019-01-04T15:15:35.200Z,-2.00
2019-01-04T15:18:04.518Z,-2.00
2019-01-04T15:20:33.979Z,-2.00
2019-01-04T15:23:03.706Z,-2.00
2019-01-04T15:25:33.238Z,-2.10
2019-01-04T15:28:02.674Z,-2.00
2019-01-04T15:30:33.913Z,-2.10
2019-01-04T15:33:03.333Z,-2.00
2019-01-04T15:35:32.734Z,-1.90
2019-01-04T15:38:02.248Z,-1.80
2019-01-04T15:40:31.839Z,-1.90
2019-01-04T15:43:01.347Z,-2.00
2019-01-04T15:45:30.835Z,-1.90
2019-01-04T15:48:00.331Z,-2.00
2019-01-04T15:50:29.882Z,-2.10
2019-01-04T15:53:01.319Z,-2.00
2019-01-04T15:55:30.903Z,-2.00
2019-01-04T15:58:00.346Z,-2.00
2019-01-04T16:00:29.715Z,-2.00
2019-01-04T16:02:59.174Z,-2.10
2019-01-04T16:05:28.722Z,-2.00
2019-01-04T16:07:58.705Z,-2.10
2019-01-04T16:10:28.025Z,-2.00
2019-01-04T16:12:57.440Z,-2.00
2019-01-04T16:15:28.534Z,-2.00
2019-01-04T16:17:57.948Z,-2.20
2019-01-04T16:20:27.556Z,-2.10
2019-01-04T16:22:57.165Z,-2.10
2019-01-04T16:25:26.573Z,-2.20
2019-01-04T16:27:56.065Z,-2.20
2019-01-04T16:30:25.835Z,-2.20
2019-01-04T16:32:55.720Z,-2.20
2019-01-04T16:35:25.285Z,-2.20
2019-01-04T16:37:55.183Z,-2.20
2019-01-04T16:40:24.613Z,-2.10
2019-01-04T16:42:54.412Z,-2.10
2019-01-04T16:45:23.880Z,-2.00
2019-01-04T16:47:55.621Z,-2.00
2019-01-04T16:50:25.431Z,-2.00
2019-01-04T16:52:59.420Z,-1.90
2019-01-04T16:55:26.175Z,-2.00
2019-01-04T16:57:55.577Z,-2.00
2019-01-04T17:00:25.314Z,-1.90
2019-01-04T17:02:55.039Z,-1.90
2019-01-04T17:05:24.776Z,-1.90
2019-01-04T17:07:54.157Z,-1.90
2019-01-04T17:10:23.881Z,-2.00
2019-01-04T17:12:53.482Z,-2.00
2019-01-04T17:15:23.461Z,-2.00
2019-01-04T17:17:52.792Z,-2.00
2019-01-04T17:20:22.389Z,-2.10
2019-01-04T17:22:52.335Z,-1.30
2019-01-04T17:25:21.730Z,-1.70
2019-01-04T17:27:51.132Z,-1.90
2019-01-04T17:30:20.662Z,-2.10
2019-01-04T17:32:50.065Z,-2.20
2019-01-04T17:35:19.402Z,-2.20
2019-01-04T17:37:49.459Z,-2.10
2019-01-04T17:40:19.224Z,-2.20
2019-01-04T17:42:49.085Z,-2.20
2019-01-04T17:45:18.903Z,-2.30
2019-01-04T17:47:48.735Z,-2.30
2019-01-04T17:50:18.619Z,-2.30
2019-01-04T17:52:48.093Z,-2.20
2019-01-04T17:55:18.143Z,-2.10
2019-01-04T17:57:47.981Z,-2.20
2019-01-04T18:00:17.975Z,-2.20
2019-01-04T18:02:47.762Z,-2.20
2019-01-04T18:05:17.580Z,-2.20
2019-01-04T18:07:47.383Z,-2.30
2019-01-04T18:10:16.930Z,-2.30
2019-01-04T18:12:46.694Z,-2.30
2019-01-04T18:15:16.154Z,-2.20
2019-01-04T18:17:45.586Z,-2.30
2019-01-04T18:20:15.099Z,-2.20
2019-01-04T18:22:44.519Z,-2.20
2019-01-04T18:25:14.141Z,-2.20
2019-01-04T18:27:44.077Z,-2.20
2019-01-04T18:30:13.798Z,-2.20
2019-01-04T18:32:43.199Z,-2.20
2019-01-04T18:35:13.043Z,-2.30
2019-01-04T18:37:42.723Z,-2.20
2019-01-04T18:40:12.166Z,-2.20
2019-01-04T18:42:41.609Z,-2.20
2019-01-04T18:45:11.092Z,-2.10
2019-01-04T18:47:41.038Z,-2.10
2019-01-04T18:50:12.770Z,-2.20
2019-01-04T18:52:42.125Z,-2.20
2019-01-04T18:55:11.913Z,-2.00
2019-01-04T18:57:41.476Z,-2.00
2019-01-04T19:00:11.864Z,-2.20
2019-01-04T19:02:41.503Z,-2.10
2019-01-04T19:05:11.406Z,-2.10
2019-01-04T19:07:40.881Z,-2.10
2019-01-04T19:10:10.310Z,-2.10
2019-01-04T19:12:40.455Z,-2.10
2019-01-04T19:15:10.740Z,-2.10
2019-01-04T19:17:40.376Z,-2.00
2019-01-04T19:20:09.970Z,-2.00
2019-01-04T19:22:39.419Z,-2.00
2019-01-04T19:25:09.290Z,-2.00
2019-01-04T19:27:38.686Z,-1.90
2019-01-04T19:30:08.844Z,-1.90
2019-01-04T19:32:38.727Z,-2.00
2019-01-04T19:35:08.063Z,-2.00
2019-01-04T19:37:38.803Z,-2.10
2019-01-04T19:40:09.766Z,-2.00
2019-01-04T19:42:39.308Z,-2.00
2019-01-04T19:45:08.668Z,-2.00
2019-01-04T19:47:38.533Z,-2.00
2019-01-04T19:50:16.431Z,-2.00
2019-01-04T19:52:46.062Z,-1.80
2019-01-04T19:55:16.659Z,-1.80
2019-01-04T19:57:47.084Z,-1.90
2019-01-04T20:00:17.077Z,-2.00
2019-01-04T20:02:47.857Z,-2.00
2019-01-04T20:05:25.543Z,-1.90
2019-01-04T20:08:24.340Z,-1.90
2019-01-04T20:11:48.415Z,-1.90
2019-01-04T20:14:58.495Z,-1.90
2019-01-04T20:17:29.860Z,-1.80
2019-01-04T20:20:03.767Z,-1.90
2019-01-04T20:22:51.226Z,-1.80
2019-01-04T20:25:43.758Z,-1.80
2019-01-04T20:28:21.310Z,-1.70
2019-01-04T20:31:01.432Z,-1.70
2019-01-04T20:33:49.344Z,-1.60
2019-01-04T20:36:36.842Z,-1.70
2019-01-04T20:39:26.406Z,-1.70
2019-01-04T20:42:14.236Z,-1.80
2019-01-04T20:45:01.844Z,-1.70
2019-01-04T20:47:49.425Z,-1.60
2019-01-04T20:50:36.028Z,-1.50
2019-01-04T20:53:23.504Z,-1.50
2019-01-04T20:56:13.165Z,-1.50
2019-01-04T20:58:44.296Z,-1.50
2019-01-04T21:01:18.450Z,-1.40
2019-01-04T21:03:55.767Z,-1.40
2019-01-04T21:06:42.520Z,-1.30
2019-01-04T21:09:29.843Z,-1.40
2019-01-04T21:12:16.889Z,-1.40
2019-01-04T21:14:57.223Z,-1.40
2019-01-04T21:17:34.745Z,-1.50
2019-01-04T21:20:18.373Z,-1.40
2019-01-04T21:22:55.240Z,-1.40
2019-01-04T21:25:26.572Z,-1.40
2019-01-04T21:27:58.399Z,-1.40
2019-01-04T21:30:32.430Z,-1.50
2019-01-04T21:33:06.280Z,-1.40
2019-01-04T21:35:53.364Z,-1.40
2019-01-04T21:38:30.715Z,-1.50
2019-01-04T21:41:11.009Z,-1.50
2019-01-04T21:43:48.091Z,-1.40
2019-01-04T21:46:34.062Z,-1.40
2019-01-04T21:49:21.678Z,-1.40
2019-01-04T21:51:53.094Z,-1.40
2019-01-04T21:54:27.829Z,-1.30
2019-01-04T21:57:15.662Z,-1.30
2019-01-04T22:00:02.932Z,-1.30
2019-01-04T22:02:36.947Z,-1.30
2019-01-04T22:05:16.944Z,-1.30
2019-01-04T22:07:48.214Z,-1.20
2019-01-04T22:10:32.011Z,-1.30
2019-01-04T22:13:19.550Z,-1.20
2019-01-04T22:15:54.582Z,-1.10
2019-01-04T22:18:42.324Z,-1.00
2019-01-04T22:21:25.883Z,-1.00
2019-01-04T22:24:09.052Z,-1.00
2019-01-04T22:26:57.103Z,-0.90
2019-01-04T22:29:28.204Z,-0.90
2019-01-04T22:32:11.787Z,-0.90
2019-01-04T22:34:59.165Z,-0.90
2019-01-04T22:37:47.026Z,-0.90
2019-01-04T22:40:18.055Z,-0.80
2019-01-04T22:42:55.200Z,-0.80
2019-01-04T22:45:32.388Z,-0.90
2019-01-04T22:48:05.807Z,-0.80
2019-01-04T22:50:52.618Z,-0.80
2019-01-04T22:53:29.688Z,-0.80
2019-01-04T22:56:17.073Z,-0.90
2019-01-04T22:59:00.160Z,-0.80
2019-01-04T23:01:37.030Z,-0.90
2019-01-04T23:04:16.699Z,-0.90
2019-01-04T23:07:02.664Z,-0.80
2019-01-04T23:09:39.706Z,-0.80
2019-01-04T23:12:13.615Z,-0.80
2019-01-04T23:14:50.821Z,-0.90
2019-01-04T23:17:21.843Z,-0.90
2019-01-04T23:19:55.856Z,-0.80
2019-01-04T23:22:49.221Z,-0.80
2019-01-04T23:25:25.905Z,-0.80
2019-01-04T23:28:13.466Z,-0.80
2019-01-04T23:30:50.999Z,-0.80
2019-01-04T23:33:24.732Z,-0.80
2019-01-04T23:36:04.963Z,-0.80
2019-01-04T23:38:36.065Z,-0.70
2019-01-04T23:41:19.245Z,-0.70
2019-01-04T23:43:50.300Z,-0.70
2019-01-04T23:46:24.722Z,-0.70
2019-01-04T23:49:14.019Z,-0.70
2019-01-04T23:51:45.428Z,-0.70
2019-01-04T23:54:31.534Z,-0.50
2019-01-04T23:57:19.078Z,-0.60
